Time;durP1;ratioP1;P1;durP2;ratioP2;P2;SDS_P1;SDS_P2;PMS_P1;PMS_P2;Temp;Humidity;BMP_temperature;BMP_pressure;BME280_temperature;BME280_humidity;BME280_pressure;Samples;Min_cycle;Max_cycle;Signal;HPM_P1;HPM_P2
2020/12/11 00:00:19;;;;;;;26.58;19.27;;;0.30;99.90;;;;;;4991247;28;20058;-75
2020/12/11 00:02:45;;;;;;;29.10;19.10;;;0.30;99.90;;;;;;5009886;28;20457;-78
2020/12/11 00:05:12;;;;;;;29.92;20.05;;;0.30;99.90;;;;;;5001761;28;20101;-75
2020/12/11 00:07:42;;;;;;;27.88;19.33;;;0.30;99.90;;;;;;5008678;28;20042;-74
2020/12/11 00:10:10;;;;;;;25.20;17.67;;;0.20;99.90;;;;;;5010300;28;20092;-75
2020/12/11 00:12:37;;;;;;;27.23;19.05;;;0.20;99.90;;;;;;5009458;28;20081;-75
2020/12/11 00:15:08;;;;;;;27.75;20.08;;;0.20;99.90;;;;;;5010386;28;20077;-75
2020/12/11 00:17:35;;;;;;;27.30;19.10;;;0.20;99.90;;;;;;5010059;28;20457;-74
2020/12/11 00:20:04;;;;;;;30.35;21.52;;;0.20;99.90;;;;;;5010312;28;20046;-77
2020/12/11 00:22:31;;;;;;;30.98;20.38;;;0.20;99.90;;;;;;4991447;28;20050;-75
2020/12/11 00:24:57;;;;;;;29.70;19.95;;;0.20;99.90;;;;;;5010049;28;20129;-75
2020/12/11 00:27:23;;;;;;;31.95;21.80;;;0.20;99.90;;;;;;5001288;28;20145;-76
2020/12/11 00:29:50;;;;;;;31.90;21.02;;;0.10;99.90;;;;;;4992741;28;20046;-75
2020/12/11 00:32:16;;;;;;;29.92;20.15;;;0.10;99.90;;;;;;5010317;28;20054;-74
2020/12/11 00:34:42;;;;;;;31.00;20.00;;;0.10;99.90;;;;;;5005700;28;20085;-74
2020/12/11 00:37:09;;;;;;;29.55;20.88;;;0.20;99.90;;;;;;4997938;28;20073;-76
2020/12/11 00:39:35;;;;;;;33.67;22.02;;;0.10;99.90;;;;;;4990195;28;20125;-74
2020/12/11 00:42:02;;;;;;;34.47;22.33;;;0.10;99.90;;;;;;4992312;28;20042;-76
2020/12/11 00:44:28;;;;;;;33.45;23.35;;;0.10;99.90;;;;;;5010011;28;20116;-74
2020/12/11 00:46:55;;;;;;;34.40;23.80;;;0.10;99.90;;;;;;5009210;28;20042;-77
2020/12/11 00:49:23;;;;;;;30.63;20.20;;;0.10;99.90;;;;;;4991357;28;20053;-74
2020/12/11 00:51:53;;;;;;;33.38;22.55;;;0.10;99.90;;;;;;5017205;28;20156;-75
2020/12/11 00:54:20;;;;;;;32.72;20.75;;;0.10;99.90;;;;;;5024028;28;20097;-78
2020/12/11 00:56:46;;;;;;;34.30;22.38;;;0.10;99.90;;;;;;5030208;28;20049;-75
2020/12/11 00:59:13;;;;;;;35.95;23.85;;;0.10;99.90;;;;;;5016940;28;20453;-75
2020/12/11 01:01:39;;;;;;;35.97;22.80;;;0.10;99.90;;;;;;5016435;28;20084;-77
2020/12/11 01:04:05;;;;;;;35.97;23.83;;;0.10;99.90;;;;;;5029498;28;20055;-76
2020/12/11 01:06:32;;;;;;;38.55;24.25;;;0.00;99.90;;;;;;5017653;28;20049;-75
2020/12/11 01:08:58;;;;;;;35.33;23.45;;;0.00;99.90;;;;;;5026159;28;20499;-76
2020/12/11 01:11:25;;;;;;;37.05;22.95;;;0.00;99.90;;;;;;5028144;28;20053;-75
2020/12/11 01:13:51;;;;;;;35.88;22.70;;;0.00;99.90;;;;;;5033242;28;20045;-74
2020/12/11 01:16:18;;;;;;;41.50;26.13;;;0.00;99.90;;;;;;5016048;28;20057;-74
2020/12/11 01:18:45;;;;;;;42.15;27.27;;;0.00;99.90;;;;;;5029588;28;20428;-75
2020/12/11 01:21:11;;;;;;;41.60;26.17;;;0.00;99.90;;;;;;5033295;28;20077;-75
2020/12/11 01:23:38;;;;;;;34.95;23.95;;;-0.10;99.90;;;;;;5031447;28;20386;-79
2020/12/11 01:26:08;;;;;;;43.83;27.23;;;-0.10;99.90;;;;;;5024861;28;20077;-76
2020/12/11 01:28:35;;;;;;;42.95;28.40;;;-0.10;99.90;;;;;;5021556;28;20156;-75
2020/12/11 01:31:02;;;;;;;42.25;26.08;;;-0.10;99.90;;;;;;5015428;28;20484;-75
2020/12/11 01:33:29;;;;;;;41.33;25.42;;;-0.10;99.90;;;;;;5032676;28;20063;-75
2020/12/11 01:35:55;;;;;;;44.85;28.27;;;-0.20;99.90;;;;;;5033394;28;20168;-74
2020/12/11 01:38:21;;;;;;;42.47;27.15;;;-0.20;99.90;;;;;;5004857;28;20133;-75
2020/12/11 01:40:48;;;;;;;44.03;28.27;;;-0.20;99.90;;;;;;5020869;28;20129;-75
2020/12/11 01:43:20;;;;;;;45.38;28.00;;;-0.20;99.90;;;;;;5030757;28;20053;-78
2020/12/11 01:45:47;;;;;;;46.47;27.27;;;-0.20;99.90;;;;;;5030953;28;20041;-77
2020/12/11 01:48:15;;;;;;;42.70;26.33;;;-0.20;99.90;;;;;;5024655;28;20049;-76
2020/12/11 01:50:41;;;;;;;44.03;28.02;;;-0.20;99.90;;;;;;4998061;28;20133;-76
2020/12/11 01:53:09;;;;;;;43.85;27.33;;;-0.20;99.90;;;;;;5013351;28;20468;-75
2020/12/11 01:55:38;;;;;;;38.95;26.38;;;-0.20;99.90;;;;;;5011735;28;20430;-77
2020/12/11 01:58:10;;;;;;;43.83;26.80;;;-0.20;99.90;;;;;;5026382;28;20038;-77
2020/12/11 02:00:42;;;;;;;47.72;28.08;;;-0.20;99.90;;;;;;5013460;28;20084;-75
2020/12/11 02:03:10;;;;;;;48.90;29.80;;;-0.30;99.90;;;;;;5011222;28;20511;-76
2020/12/11 02:05:37;;;;;;;47.40;28.38;;;-0.30;99.90;;;;;;5023916;28;20141;-75
2020/12/11 02:08:05;;;;;;;49.75;29.10;;;-0.40;99.90;;;;;;5012475;28;20068;-76
2020/12/11 02:10:32;;;;;;;46.90;28.20;;;-0.50;99.90;;;;;;5019119;28;20080;-76
2020/12/11 02:13:06;;;;;;;50.60;30.45;;;-0.50;99.90;;;;;;5025884;28;20054;-77
2020/12/11 02:15:33;;;;;;;51.33;30.48;;;-0.60;99.90;;;;;;5032520;28;20125;-76
2020/12/11 02:17:59;;;;;;;53.78;31.45;;;-0.60;99.90;;;;;;5012609;28;20137;-77
2020/12/11 02:20:26;;;;;;;57.08;32.55;;;-0.70;99.90;;;;;;5027526;28;20050;-80
2020/12/11 02:22:52;;;;;;;59.95;33.65;;;-0.70;99.90;;;;;;5022260;28;20073;-75
2020/12/11 02:25:19;;;;;;;65.47;35.22;;;-0.80;99.90;;;;;;5018106;28;20053;-75
2020/12/11 02:27:47;;;;;;;61.90;33.58;;;-0.90;99.90;;;;;;5002096;28;20135;-75
2020/12/11 02:30:15;;;;;;;66.82;36.95;;;-0.90;99.90;;;;;;5013697;28;20048;-75
2020/12/11 02:32:42;;;;;;;64.53;36.10;;;-1.00;99.90;;;;;;5031915;28;20045;-76
2020/12/11 02:35:09;;;;;;;68.70;35.38;;;-1.00;99.90;;;;;;5025868;28;20045;-75
2020/12/11 02:37:37;;;;;;;70.60;36.60;;;-1.00;99.90;;;;;;5026591;28;20081;-75
2020/12/11 02:40:05;;;;;;;71.25;37.30;;;-1.00;99.90;;;;;;4998469;28;20069;-75
2020/12/11 02:42:31;;;;;;;76.43;37.95;;;-1.10;99.90;;;;;;5022596;28;20475;-74
2020/12/11 02:44:58;;;;;;;69.50;36.28;;;-1.10;99.90;;;;;;5019411;28;20493;-76
2020/12/11 02:47:25;;;;;;;73.93;38.05;;;-1.20;99.90;;;;;;5023304;28;20474;-78
2020/12/11 02:49:52;;;;;;;77.65;36.53;;;-1.20;99.90;;;;;;5018641;28;20511;-74
2020/12/11 02:52:18;;;;;;;76.03;39.15;;;-1.20;99.90;;;;;;5018870;28;20042;-74
2020/12/11 02:54:46;;;;;;;74.45;37.90;;;-1.30;99.90;;;;;;5009855;28;20124;-75
2020/12/11 02:57:13;;;;;;;73.72;37.17;;;-1.30;99.90;;;;;;5016943;28;20087;-75
2020/12/11 02:59:39;;;;;;;80.95;40.80;;;-1.30;99.90;;;;;;5024902;28;20119;-75
2020/12/11 03:02:05;;;;;;;77.80;38.90;;;-1.30;99.90;;;;;;5003592;28;20135;-75
2020/12/11 03:04:32;;;;;;;79.00;40.90;;;-1.30;99.90;;;;;;5015716;28;20104;-75
2020/12/11 03:06:58;;;;;;;80.18;38.00;;;-1.20;99.90;;;;;;5011439;28;20449;-75
2020/12/11 03:09:24;;;;;;;81.82;40.83;;;-1.20;99.90;;;;;;5001084;28;20096;-74
2020/12/11 03:11:51;;;;;;;80.28;40.20;;;-1.30;99.90;;;;;;5011660;28;20128;-75
2020/12/11 03:14:18;;;;;;;76.28;37.25;;;-1.30;99.90;;;;;;5010817;28;20069;-74
2020/12/11 03:16:44;;;;;;;78.90;39.78;;;-1.30;99.90;;;;;;5026979;28;20115;-75
2020/12/11 03:19:11;;;;;;;84.28;41.53;;;-1.30;99.90;;;;;;5020872;28;20057;-75
2020/12/11 03:21:37;;;;;;;82.63;40.80;;;-1.30;99.90;;;;;;5031264;28;20127;-74
2020/12/11 03:24:04;;;;;;;81.43;40.45;;;-1.30;99.90;;;;;;5027719;28;20065;-77
2020/12/11 03:26:30;;;;;;;77.50;39.15;;;-1.30;99.90;;;;;;5008813;28;20084;-81
2020/12/11 03:28:57;;;;;;;82.80;39.30;;;-1.30;99.90;;;;;;5011089;28;20156;-77
2020/12/11 03:31:23;;;;;;;82.22;39.55;;;-1.30;99.90;;;;;;5018876;28;20049;-76
2020/12/11 03:33:50;;;;;;;87.47;40.65;;;-1.30;99.90;;;;;;5010926;28;20054;-77
2020/12/11 03:36:19;;;;;;;81.43;39.80;;;-1.30;99.90;;;;;;5021127;28;20413;-74
2020/12/11 03:38:48;;;;;;;78.78;39.88;;;-1.30;99.90;;;;;;5005030;28;20523;-75
2020/12/11 03:41:15;;;;;;;84.75;40.83;;;-1.30;99.90;;;;;;5019918;28;20465;-75
2020/12/11 03:43:42;;;;;;;83.05;39.97;;;-1.30;99.90;;;;;;5016254;28;20425;-74
2020/12/11 03:46:08;;;;;;;82.95;39.08;;;-1.30;99.90;;;;;;5023569;28;20054;-75
2020/12/11 03:48:35;;;;;;;85.28;40.53;;;-1.30;99.90;;;;;;5023999;28;20137;-75
2020/12/11 03:51:02;;;;;;;82.68;39.90;;;-1.30;99.90;;;;;;5030620;28;20065;-77
2020/12/11 03:53:28;;;;;;;86.65;41.55;;;-1.30;99.90;;;;;;5029195;28;20417;-76
2020/12/11 03:55:57;;;;;;;89.90;41.70;;;-1.40;99.90;;;;;;5016666;28;20053;-76
2020/12/11 03:58:23;;;;;;;84.30;39.30;;;-1.40;99.90;;;;;;5025063;28;20045;-76
2020/12/11 04:00:50;;;;;;;83.10;39.85;;;-1.40;99.90;;;;;;4999313;28;20527;-76
2020/12/11 04:03:16;;;;;;;81.25;39.97;;;-1.40;99.90;;;;;;5030143;28;20092;-75
2020/12/11 04:05:43;;;;;;;83.30;40.05;;;-1.40;99.90;;;;;;5016708;28;20073;-75
2020/12/11 04:08:09;;;;;;;81.50;38.90;;;-1.40;99.90;;;;;;5001479;28;20128;-75
2020/12/11 04:10:35;;;;;;;84.15;40.30;;;-1.40;99.90;;;;;;5027650;28;20080;-75
2020/12/11 04:13:02;;;;;;;79.30;40.47;;;-1.40;99.90;;;;;;5029943;28;20508;-76
2020/12/11 04:15:28;;;;;;;81.25;39.10;;;-1.40;99.90;;;;;;5030875;28;20144;-75
2020/12/11 04:17:55;;;;;;;77.65;38.22;;;-1.40;99.90;;;;;;5001101;28;20490;-75
2020/12/11 04:20:21;;;;;;;81.50;38.92;;;-1.40;99.90;;;;;;5013118;28;20081;-74
2020/12/11 04:22:48;;;;;;;80.72;39.58;;;-1.40;99.90;;;;;;5014483;28;20429;-77
2020/12/11 04:25:14;;;;;;;80.95;38.30;;;-1.40;99.90;;;;;;5025457;28;20132;-75
2020/12/11 04:27:40;;;;;;;82.97;39.85;;;-1.50;99.90;;;;;;5018909;28;20149;-76
2020/12/11 04:30:07;;;;;;;79.07;37.80;;;-1.50;99.90;;;;;;5029120;28;20104;-76
2020/12/11 04:32:33;;;;;;;78.13;37.08;;;-1.50;99.90;;;;;;5018948;28;20453;-75
2020/12/11 04:35:00;;;;;;;78.03;35.92;;;-1.50;99.90;;;;;;5026852;28;20140;-77
2020/12/11 04:37:26;;;;;;;80.72;38.75;;;-1.50;99.90;;;;;;5002287;28;20046;-80
2020/12/11 04:39:53;;;;;;;77.53;37.97;;;-1.60;99.90;;;;;;5017186;28;20549;-75
2020/12/11 04:42:19;;;;;;;78.65;38.05;;;-1.60;99.90;;;;;;5029973;28;20467;-76
2020/12/11 04:44:45;;;;;;;80.03;36.75;;;-1.70;99.90;;;;;;5029389;28;20477;-80
2020/12/11 04:47:12;;;;;;;77.40;36.83;;;-1.70;99.90;;;;;;5028676;28;20041;-75
2020/12/11 04:49:40;;;;;;;81.55;39.45;;;-1.70;99.90;;;;;;5029021;28;20046;-75
2020/12/11 04:52:07;;;;;;;88.05;40.60;;;-1.70;99.90;;;;;;5029675;28;20152;-76
2020/12/11 04:54:37;;;;;;;95.00;40.88;;;-1.70;99.90;;;;;;5008877;28;20104;-75
2020/12/11 04:57:08;;;;;;;87.43;40.38;;;-1.70;99.90;;;;;;5000155;28;20444;-77
2020/12/11 04:59:35;;;;;;;90.72;39.95;;;-1.80;99.90;;;;;;5011148;28;20160;-75
2020/12/11 05:02:11;;;;;;;94.43;40.97;;;-1.80;99.90;;;;;;5029282;28;20077;-77
2020/12/11 05:04:39;;;;;;;92.88;41.42;;;-1.80;99.90;;;;;;5008319;28;20053;-75
2020/12/11 05:07:06;;;;;;;91.13;41.67;;;-1.80;99.90;;;;;;5017268;28;20046;-77
2020/12/11 05:09:32;;;;;;;102.22;42.90;;;-1.80;99.90;;;;;;5022239;28;20368;-76
2020/12/11 05:12:01;;;;;;;92.97;42.10;;;-1.80;99.90;;;;;;5029088;28;20092;-77
2020/12/11 05:14:34;;;;;;;106.78;43.33;;;-1.90;99.90;;;;;;5028577;28;20111;-75
2020/12/11 05:17:01;;;;;;;;;;;-1.90;99.90;;;;;;5024716;28;20140;-78
2020/12/11 05:19:30;;;;;;;99.00;41.17;;;-1.90;99.90;;;;;;5023649;28;19921;-76
2020/12/11 05:22:11;;;;;;;101.47;42.35;;;-1.90;99.90;;;;;;5011190;28;20464;-77
2020/12/11 05:24:44;;;;;;;104.78;43.38;;;-1.90;99.90;;;;;;4997844;28;20045;-75
2020/12/11 05:27:32;;;;;;;94.88;41.35;;;-1.90;99.90;;;;;;5008435;28;20053;-76
2020/12/11 05:30:01;;;;;;;97.28;42.58;;;-1.90;99.90;;;;;;5000731;28;20092;-76
2020/12/11 05:32:46;;;;;;;98.32;42.55;;;-2.00;99.90;;;;;;5008774;28;20057;-75
2020/12/11 05:35:18;;;;;;;95.70;42.38;;;-2.00;99.90;;;;;;4996623;28;20077;-75
2020/12/11 05:37:48;;;;;;;97.70;42.17;;;-2.10;99.90;;;;;;5006504;28;20528;-81
2020/12/11 05:40:36;;;;;;;93.50;41.95;;;-2.20;99.90;;;;;;4991254;28;20046;-75
2020/12/11 05:43:08;;;;;;;94.55;40.85;;;-2.20;99.90;;;;;;5004428;28;20557;-76
2020/12/11 05:45:37;;;;;;;96.60;43.67;;;-2.20;99.90;;;;;;4992098;28;20070;-74
2020/12/11 05:48:05;;;;;;;94.57;42.03;;;-2.20;99.90;;;;;;4990469;28;20131;-76
2020/12/11 05:50:32;;;;;;;97.63;42.22;;;-2.20;99.90;;;;;;5007981;28;20050;-75
2020/12/11 05:52:59;;;;;;;97.22;41.47;;;-2.20;99.90;;;;;;5007197;28;20101;-77
2020/12/11 05:55:26;;;;;;;99.13;42.13;;;-2.20;99.90;;;;;;5008825;28;20084;-80
2020/12/11 05:57:57;;;;;;;91.50;39.00;;;-2.20;99.90;;;;;;5010805;28;20125;-77
2020/12/11 06:00:25;;;;;;;97.38;42.35;;;-2.20;99.90;;;;;;5012761;28;20415;-77
2020/12/11 06:02:53;;;;;;;98.60;42.67;;;-2.20;99.90;;;;;;5010721;28;20054;-78
2020/12/11 06:05:21;;;;;;;95.88;43.45;;;-2.10;99.90;;;;;;5012049;28;20136;-78
2020/12/11 06:07:48;;;;;;;95.28;41.17;;;-2.10;99.90;;;;;;5010247;28;20207;-80
2020/12/11 06:10:24;;;;;;;88.97;39.67;;;-2.00;99.90;;;;;;5012507;28;20057;-79
2020/12/11 06:12:52;;;;;;;88.78;39.05;;;-2.00;99.90;;;;;;5010448;28;20116;-77
2020/12/11 06:15:24;;;;;;;82.88;39.10;;;-1.90;99.90;;;;;;4994711;28;20081;-80
2020/12/11 06:18:03;;;;;;;78.50;38.70;;;-1.80;99.90;;;;;;4994291;28;20133;-79
2020/12/11 06:20:35;;;;;;;64.35;33.20;;;-1.70;99.90;;;;;;4995126;28;20412;-79
2020/12/11 06:23:29;;;;;;;64.43;33.15;;;-1.70;99.90;;;;;;5010005;28;20120;-77
2020/12/11 06:25:58;;;;;;;65.53;32.05;;;-1.70;99.90;;;;;;5011503;28;20132;-77
2020/12/11 06:28:39;;;;;;;61.55;31.92;;;-1.60;99.90;;;;;;4989587;28;20104;-79
2020/12/11 06:31:19;;;;;;;69.28;34.08;;;-1.70;99.90;;;;;;4992682;28;20142;-78
2020/12/11 06:33:55;;;;;;;62.83;31.73;;;-1.80;99.90;;;;;;4992057;28;20181;-78
2020/12/11 06:36:27;;;;;;;62.42;32.38;;;-1.90;99.90;;;;;;4990717;28;20062;-79
2020/12/11 06:38:59;;;;;;;71.88;34.15;;;-2.00;99.90;;;;;;4988950;28;20141;-80
2020/12/11 06:41:28;;;;;;;62.17;31.88;;;-2.00;99.90;;;;;;4991906;28;20101;-83
2020/12/11 06:43:58;;;;;;;69.20;33.58;;;-2.00;99.90;;;;;;4982848;28;20082;-78
2020/12/11 06:46:28;;;;;;;66.80;33.03;;;-2.10;99.90;;;;;;4990484;28;20061;-77
2020/12/11 06:49:18;;;;;;;69.15;32.03;;;-2.00;99.90;;;;;;4991589;28;20071;-79
2020/12/11 06:51:46;;;;;;;61.58;30.23;;;-1.90;99.90;;;;;;5006837;28;20112;-78
2020/12/11 06:54:26;;;;;;;62.63;31.83;;;-1.90;99.90;;;;;;5002314;28;20058;-78
2020/12/11 06:56:55;;;;;;;55.55;30.02;;;-1.90;99.90;;;;;;5001520;28;20058;-78
2020/12/11 06:59:32;;;;;;;57.47;29.15;;;-1.80;99.90;;;;;;5011329;28;20081;-78
2020/12/11 07:02:02;;;;;;;55.92;27.33;;;-1.70;99.90;;;;;;5007193;28;20058;-78
2020/12/11 07:04:48;;;;;;;55.00;29.27;;;-1.60;99.90;;;;;;5001267;28;20137;-78
2020/12/11 07:07:15;;;;;;;58.60;30.25;;;-1.60;99.90;;;;;;5002451;28;20055;-78
2020/12/11 07:09:46;;;;;;;54.75;28.55;;;-1.60;99.90;;;;;;5005265;28;20061;-76
2020/12/11 07:12:16;;;;;;;57.05;29.73;;;-1.60;99.90;;;;;;4999010;28;20129;-76
2020/12/11 07:14:47;;;;;;;60.15;31.42;;;-1.60;99.90;;;;;;4990129;28;20133;-76
2020/12/11 07:17:28;;;;;;;58.28;29.50;;;-1.70;99.90;;;;;;4991073;28;20149;-76
2020/12/11 07:19:56;;;;;;;57.53;29.98;;;-1.70;99.90;;;;;;4990979;28;20113;-77
2020/12/11 07:22:23;;;;;;;58.78;30.13;;;-1.70;99.90;;;;;;4990147;28;20050;-78
2020/12/11 07:24:49;;;;;;;70.55;38.90;;;-1.80;99.90;;;;;;4990297;28;20050;-76
2020/12/11 07:27:17;;;;;;;55.47;27.92;;;-1.80;99.90;;;;;;4990570;28;20056;-75
2020/12/11 07:29:51;;;;;;;58.15;28.75;;;-1.80;99.90;;;;;;5009696;28;20162;-74
2020/12/11 07:32:22;;;;;;;59.90;29.90;;;-1.80;99.90;;;;;;5006927;28;20604;-78
2020/12/11 07:34:49;;;;;;;57.72;30.63;;;-1.70;99.90;;;;;;5000187;28;20463;-77
2020/12/11 07:37:16;;;;;;;58.33;29.83;;;-1.70;99.90;;;;;;4986733;28;20065;-75
2020/12/11 07:39:42;;;;;;;52.28;27.65;;;-1.60;99.90;;;;;;5008701;28;20045;-75
2020/12/11 07:42:09;;;;;;;49.95;27.58;;;-1.60;99.90;;;;;;5010476;28;20050;-76
2020/12/11 07:44:38;;;;;;;51.97;26.33;;;-1.60;99.90;;;;;;5010268;28;20057;-78
2020/12/11 07:47:13;;;;;;;48.35;26.23;;;-1.50;99.90;;;;;;5009086;28;20134;-76
2020/12/11 07:49:45;;;;;;;46.67;25.52;;;-1.40;99.90;;;;;;4987537;28;20525;-80
2020/12/11 07:52:22;;;;;;;48.65;26.42;;;-1.40;99.90;;;;;;4991825;28;20058;-76
2020/12/11 07:54:49;;;;;;;51.70;26.60;;;-1.30;99.90;;;;;;4986010;28;20046;-75
2020/12/11 07:57:19;;;;;;;55.58;30.65;;;-1.20;99.90;;;;;;5002767;28;20046;-78
2020/12/11 08:00:06;;;;;;;51.75;28.35;;;-1.10;99.90;;;;;;5009951;28;20116;-75
2020/12/11 08:02:34;;;;;;;50.50;26.27;;;-1.10;99.90;;;;;;5004291;28;20119;-77
2020/12/11 08:05:08;;;;;;;51.63;27.15;;;-1.10;99.90;;;;;;5010475;28;20045;-75
2020/12/11 08:07:36;;;;;;;45.58;26.42;;;-1.10;99.90;;;;;;5007922;28;20077;-75
2020/12/11 08:10:13;;;;;;;50.90;26.27;;;-1.10;99.90;;;;;;5006422;28;20058;-76
2020/12/11 08:12:40;;;;;;;46.33;25.85;;;-1.10;99.90;;;;;;4992058;28;20056;-75
2020/12/11 08:15:08;;;;;;;42.95;24.13;;;-1.10;99.90;;;;;;5008489;28;20132;-78
2020/12/11 08:17:35;;;;;;;48.42;26.60;;;-1.10;99.90;;;;;;5002073;28;20123;-75
2020/12/11 08:20:06;;;;;;;43.90;25.17;;;-1.00;99.90;;;;;;5006732;28;20046;-75
2020/12/11 08:22:35;;;;;;;41.60;24.58;;;-0.70;99.90;;;;;;4988435;28;20144;-74
2020/12/11 08:25:27;;;;;;;41.08;24.10;;;-0.50;99.90;;;;;;4996192;28;20085;-76
2020/12/11 08:28:04;;;;;;;39.45;22.98;;;-0.30;99.90;;;;;;4983043;28;20054;-76
2020/12/11 08:30:35;;;;;;;39.30;22.73;;;-0.10;99.90;;;;;;4993781;28;20049;-77
2020/12/11 08:33:12;;;;;;;41.53;23.05;;;-0.10;99.90;;;;;;5005210;28;20056;-77
2020/12/11 08:35:39;;;;;;;37.97;21.80;;;-0.10;99.90;;;;;;4992039;28;20512;-78
2020/12/11 08:38:11;;;;;;;41.80;23.10;;;-0.10;99.90;;;;;;5007008;28;20104;-76
2020/12/11 08:40:47;;;;;;;37.92;22.15;;;-0.10;99.90;;;;;;5009687;28;20422;-75
2020/12/11 09:03:25;;;;;;;33.13;19.77;;;0.90;99.90;;;;;;5080632;27;20772;-75
2020/12/11 09:05:52;;;;;;;33.63;20.08;;;1.10;99.90;;;;;;5064199;28;20048;-76
2020/12/11 09:08:19;;;;;;;31.10;19.67;;;1.20;99.90;;;;;;5058884;28;20128;-76
2020/12/11 09:10:45;;;;;;;31.70;19.67;;;1.20;99.90;;;;;;5063206;28;20049;-76
2020/12/11 09:13:12;;;;;;;30.58;19.42;;;1.20;99.90;;;;;;5064372;28;20052;-76
2020/12/11 09:15:38;;;;;;;30.25;19.45;;;1.20;99.90;;;;;;5060896;28;20139;-79
2020/12/11 09:18:05;;;;;;;30.33;17.77;;;1.30;99.90;;;;;;5050947;28;20068;-76
2020/12/11 09:20:32;;;;;;;28.00;17.88;;;1.20;99.90;;;;;;5063974;28;20051;-74
2020/12/11 09:22:59;;;;;;;29.08;18.73;;;1.30;99.90;;;;;;5054161;28;20057;-76
2020/12/11 09:25:25;;;;;;;30.88;19.48;;;1.20;99.90;;;;;;5065192;28;20059;-77
2020/12/11 09:27:52;;;;;;;26.85;18.55;;;1.40;99.90;;;;;;5060806;28;20408;-77
2020/12/11 09:30:31;;;;;;;28.65;18.30;;;1.60;99.90;;;;;;5058225;28;20510;-77
2020/12/11 09:35:30;;;;;;;;;;;2.30;99.90;;;;;;5057320;28;20060;-76
2020/12/11 09:37:57;;;;;;;30.23;20.27;;;2.40;99.90;;;;;;5063448;28;19960;-79
2020/12/11 09:45:45;;;;;;;27.50;18.63;;;2.40;99.90;;;;;;5063783;28;20122;-76
2020/12/11 09:50:57;;;;;;;28.20;19.38;;;2.60;99.90;;;;;;5056348;28;20048;-76
2020/12/11 09:56:09;;;;;;;29.60;18.58;;;2.60;99.90;;;;;;5055824;28;20119;-75
2020/12/11 09:58:39;;;;;;;27.50;17.85;;;2.70;99.90;;;;;;5060701;28;20500;-75
2020/12/11 10:01:08;;;;;;;26.58;17.05;;;2.90;99.90;;;;;;5061293;28;20049;-75
2020/12/11 10:03:38;;;;;;;26.92;17.52;;;3.20;99.90;;;;;;5063749;28;20041;-75
2020/12/11 10:06:08;;;;;;;26.70;17.38;;;3.50;99.90;;;;;;5057080;28;20109;-76
2020/12/11 10:08:35;;;;;;;23.50;16.40;;;3.50;99.90;;;;;;5059911;28;20098;-75
2020/12/11 10:11:02;;;;;;;24.40;16.90;;;3.20;99.90;;;;;;5054071;28;20503;-76
2020/12/11 10:13:29;;;;;;;27.08;17.02;;;3.00;99.90;;;;;;5053337;28;20474;-77
2020/12/11 10:15:58;;;;;;;24.40;15.90;;;3.20;99.90;;;;;;5052174;28;20114;-75
2020/12/11 10:18:35;;;;;;;23.17;15.95;;;3.50;99.90;;;;;;5042954;28;20103;-73
2020/12/11 10:21:02;;;;;;;24.08;16.95;;;3.50;99.90;;;;;;5046461;28;20107;-75
2020/12/11 10:23:29;;;;;;;25.77;16.85;;;3.30;99.90;;;;;;5045281;28;20056;-75
2020/12/11 10:25:56;;;;;;;25.52;15.57;;;3.10;99.90;;;;;;5043725;28;20443;-74
2020/12/11 10:28:22;;;;;;;24.63;16.50;;;2.90;99.90;;;;;;5045140;28;20052;-73
2020/12/11 10:30:49;;;;;;;25.67;15.82;;;2.80;99.90;;;;;;5047776;28;20151;-75
2020/12/11 10:33:16;;;;;;;29.08;17.50;;;2.70;99.90;;;;;;5042494;28;20481;-73
2020/12/11 10:35:42;;;;;;;27.92;16.77;;;2.50;99.90;;;;;;5045382;28;20045;-73
2020/12/11 10:38:09;;;;;;;24.30;16.33;;;2.50;99.90;;;;;;5045428;28;20079;-74
2020/12/11 10:40:35;;;;;;;22.92;15.75;;;2.70;99.90;;;;;;5050423;28;20103;-74
2020/12/11 10:43:02;;;;;;;32.53;16.38;;;3.00;99.90;;;;;;5047853;28;20056;-74
2020/12/11 10:45:29;;;;;;;21.67;15.27;;;3.40;99.90;;;;;;5050566;28;20044;-75
2020/12/11 10:48:05;;;;;;;23.13;15.35;;;3.90;99.90;;;;;;5048422;28;20099;-75
2020/12/11 10:50:33;;;;;;;21.00;14.35;;;4.30;99.90;;;;;;5047332;28;20067;-74
2020/12/11 10:53:01;;;;;;;25.30;15.55;;;4.60;99.90;;;;;;5046687;28;20052;-75
2020/12/11 10:55:28;;;;;;;20.30;14.48;;;4.90;99.90;;;;;;5043553;28;20576;-76
2020/12/11 10:57:55;;;;;;;21.38;15.35;;;4.80;99.90;;;;;;5049025;28;20045;-75
2020/12/11 11:00:22;;;;;;;25.67;15.43;;;4.80;99.90;;;;;;5050147;28;20087;-75
2020/12/11 11:02:49;;;;;;;21.27;15.05;;;4.30;99.90;;;;;;5050056;28;20155;-75
2020/12/11 11:05:15;;;;;;;22.65;16.13;;;3.70;99.90;;;;;;5051279;28;20526;-74
2020/12/11 11:07:42;;;;;;;24.40;15.88;;;3.40;99.90;;;;;;5048327;28;20053;-75
2020/12/11 11:12:54;;;;;;;24.20;15.88;;;3.30;99.90;;;;;;5050604;28;20048;-75
2020/12/11 11:29:20;;;;;;;26.90;16.30;;;2.80;99.90;;;;;;5056249;28;20057;-74
2020/12/11 11:31:46;;;;;;;20.98;14.65;;;3.00;99.90;;;;;;5045658;28;20098;-75
2020/12/11 11:34:12;;;;;;;24.70;14.45;;;3.10;99.90;;;;;;5049925;28;20037;-74
2020/12/11 11:36:39;;;;;;;21.92;15.18;;;3.30;99.90;;;;;;5049382;28;20045;-74
2020/12/11 11:39:06;;;;;;;25.13;15.95;;;3.30;99.90;;;;;;5047847;28;20053;-75
2020/12/11 11:41:48;;;;;;;25.20;15.65;;;3.30;99.90;;;;;;5043833;28;20052;-75
2020/12/11 11:46:50;;;;;;;20.50;14.88;;;3.80;99.90;;;;;;5050838;28;20037;-73
2020/12/11 11:49:53;;;;;;;21.65;14.48;;;4.20;99.90;;;;;;5050659;28;20056;-75
2020/12/11 11:52:40;;;;;;;22.40;15.32;;;4.50;99.90;;;;;;5050398;28;20095;-75
2020/12/11 11:54:56;;;;;;;;;;;4.60;99.90;;;;;;5048347;28;20417;-75
2020/12/11 11:57:23;;;;;;;27.23;15.43;;;4.10;99.90;;;;;;5050594;28;19924;-74
2020/12/11 11:59:49;;;;;;;22.10;15.40;;;3.80;99.90;;;;;;5049790;28;20077;-74
2020/12/11 12:02:16;;;;;;;22.02;15.40;;;3.60;99.90;;;;;;5049248;28;20548;-75
2020/12/11 12:04:42;;;;;;;22.05;15.35;;;3.60;99.90;;;;;;5041296;28;20064;-74
2020/12/11 12:07:09;;;;;;;25.08;16.52;;;3.10;99.90;;;;;;5048771;28;20041;-75
2020/12/11 12:09:36;;;;;;;26.17;17.50;;;2.90;99.90;;;;;;5046483;28;20094;-74
2020/12/11 12:12:03;;;;;;;25.45;16.77;;;2.80;99.90;;;;;;5049676;28;20049;-75
2020/12/11 12:14:29;;;;;;;25.90;16.23;;;2.80;99.90;;;;;;5048567;28;20519;-75
2020/12/11 12:16:58;;;;;;;24.88;16.70;;;2.80;99.90;;;;;;5050243;28;20099;-75
2020/12/11 12:19:30;;;;;;;24.25;15.48;;;2.70;99.90;;;;;;5037896;28;20052;-74
2020/12/11 12:30:03;;;;;;;18.83;12.77;;;4.70;99.90;;;;;;5049213;28;20072;-75
2020/12/11 12:32:35;;;;;;;19.15;12.82;;;4.70;99.90;;;;;;5049022;28;20049;-73
2020/12/11 12:35:12;;;;;;;21.63;14.30;;;4.60;99.90;;;;;;5048776;28;20049;-75
2020/12/11 12:37:47;;;;;;;23.60;14.13;;;4.40;99.90;;;;;;5046310;28;20071;-75
2020/12/11 12:40:45;;;;;;;20.38;13.63;;;4.20;99.90;;;;;;5039193;28;20502;-74
2020/12/11 12:43:23;;;;;;;14.98;9.75;;;3.80;99.90;;;;;;5041316;28;20049;-75
2020/12/11 12:45:49;;;;;;;21.45;13.10;;;3.50;99.90;;;;;;5048091;28;20049;-76
2020/12/11 12:48:16;;;;;;;18.13;13.38;;;3.30;99.90;;;;;;5037522;28;20045;-75
2020/12/11 12:50:42;;;;;;;21.08;13.68;;;3.30;99.90;;;;;;5046622;28;20106;-75
2020/12/11 12:53:08;;;;;;;20.40;13.25;;;3.30;99.90;;;;;;5047419;28;20742;-75
2020/12/11 12:55:46;;;;;;;23.75;14.98;;;3.10;99.90;;;;;;5049367;28;20064;-75
2020/12/11 12:58:15;;;;;;;24.83;14.82;;;2.80;99.90;;;;;;5048798;28;20084;-75
2020/12/11 13:01:50;;;;;;;26.08;15.52;;;2.60;99.90;;;;;;5049094;28;20049;-75
2020/12/11 13:04:02;;;;;;;23.27;16.30;;;2.50;99.90;;;;;;5047829;28;20045;-75
2020/12/11 13:06:29;;;;;;;28.38;15.85;;;2.40;99.90;;;;;;5048967;28;20518;-75
2020/12/11 13:08:55;;;;;;;21.55;14.50;;;2.30;99.90;;;;;;5039593;28;20476;-75
2020/12/11 13:11:22;;;;;;;23.02;15.05;;;2.30;99.90;;;;;;5048594;28;20087;-76
2020/12/11 13:13:48;;;;;;;24.35;16.42;;;2.30;99.90;;;;;;5048669;28;20045;-75
2020/12/11 13:16:14;;;;;;;25.90;15.75;;;2.20;99.90;;;;;;5047767;28;20077;-74
2020/12/11 13:18:41;;;;;;;30.45;14.80;;;2.20;99.90;;;;;;5048770;28;20444;-75
2020/12/11 13:21:13;;;;;;;24.45;15.55;;;2.30;99.90;;;;;;5049236;28;20130;-75
2020/12/11 13:29:08;;;;;;;24.00;15.43;;;2.30;99.90;;;;;;5047604;28;20052;-77
2020/12/11 13:31:35;;;;;;;25.75;16.10;;;2.30;99.90;;;;;;5049242;28;20075;-74
2020/12/11 13:34:01;;;;;;;22.55;14.98;;;2.20;99.90;;;;;;5042907;28;20502;-75
2020/12/11 13:36:28;;;;;;;24.33;15.48;;;2.20;99.90;;;;;;5047820;28;20464;-75
2020/12/11 13:38:54;;;;;;;23.35;13.90;;;2.30;99.90;;;;;;5047554;28;20136;-76
2020/12/11 13:41:22;;;;;;;21.80;14.73;;;2.20;99.90;;;;;;5048919;28;20049;-74
2020/12/11 13:43:48;;;;;;;20.90;14.07;;;2.20;99.90;;;;;;5048701;28;20053;-74
2020/12/11 13:46:15;;;;;;;21.17;13.90;;;2.20;99.90;;;;;;5049167;28;20475;-74
2020/12/11 13:48:41;;;;;;;21.88;14.15;;;2.30;99.90;;;;;;5049884;28;20049;-73